createdAt,value
2018-05-09T00:02:10.220Z,93860.58
2018-05-09T00:04:38.623Z,93870.29
2018-05-09T00:07:07.025Z,93875.50
2018-05-09T00:09:35.768Z,93869.88
2018-05-09T00:12:04.309Z,93870.66
2018-05-09T00:14:32.631Z,93866.11
2018-05-09T00:17:01.411Z,93861.43
2018-05-09T00:19:29.807Z,93865.30
2018-05-09T00:21:58.215Z,93864.30
2018-05-09T00:24:26.819Z,93871.24
2018-05-09T00:26:56.207Z,93864.49
2018-05-09T00:29:24.606Z,93846.48
2018-05-09T00:31:53.182Z,93862.59
2018-05-09T00:34:21.565Z,93868.73
2018-05-09T00:36:49.959Z,93864.16
2018-05-09T00:39:18.775Z,93873.23
2018-05-09T00:41:47.243Z,93863.68
2018-05-09T00:44:15.577Z,93863.37
2018-05-09T00:46:44.208Z,93868.94
2018-05-09T00:49:12.590Z,93866.20
2018-05-09T00:51:40.981Z,93866.64
2018-05-09T00:54:21.687Z,93867.63
2018-05-09T00:56:50.047Z,93873.43
2018-05-09T00:59:18.452Z,93867.41
2018-05-09T01:01:46.887Z,93872.52
2018-05-09T01:04:15.517Z,93876.77
2018-05-09T01:06:43.964Z,93878.56
2018-05-09T01:09:12.743Z,93872.09
2018-05-09T01:11:41.145Z,93878.84
2018-05-09T01:14:09.591Z,93858.88
2018-05-09T01:16:38.063Z,93868.83
2018-05-09T01:19:06.475Z,93870.72
2018-05-09T01:21:34.880Z,93873.49
2018-05-09T01:24:03.641Z,93875.14
2018-05-09T01:26:32.036Z,93874.48
2018-05-09T01:29:00.428Z,93880.55
2018-05-09T01:31:29.123Z,93870.77
2018-05-09T01:33:57.525Z,93875.30
2018-05-09T01:36:26.036Z,93871.61
2018-05-09T01:38:54.842Z,93878.72
2018-05-09T01:41:23.297Z,93881.89
2018-05-09T01:43:51.754Z,93883.88
2018-05-09T01:46:20.396Z,93892.15
2018-05-09T01:48:48.828Z,93885.11
2018-05-09T01:51:17.227Z,93888.80
2018-05-09T01:53:46.215Z,93881.63
2018-05-09T01:56:14.625Z,93881.77
2018-05-09T01:58:43.102Z,93881.20
2018-05-09T02:01:11.696Z,93875.02
2018-05-09T02:03:40.083Z,93873.66
2018-05-09T02:06:08.497Z,93878.63
2018-05-09T02:08:37.243Z,93881.31
2018-05-09T02:11:05.644Z,93882.92
2018-05-09T02:13:34.059Z,93884.59
2018-05-09T02:16:02.888Z,93881.08
2018-05-09T02:18:31.330Z,93902.93
2018-05-09T02:20:59.743Z,93888.01
2018-05-09T02:23:28.517Z,93872.13
2018-05-09T02:25:56.906Z,93885.08
2018-05-09T02:28:26.183Z,93882.59
2018-05-09T02:30:54.743Z,93887.03
2018-05-09T02:33:23.119Z,93892.97
2018-05-09T02:35:51.500Z,93876.23
2018-05-09T02:38:19.941Z,93871.41
2018-05-09T02:40:48.331Z,93865.16
2018-05-09T02:43:16.807Z,93868.86
2018-05-09T02:45:45.336Z,93869.86
2018-05-09T02:48:13.731Z,93870.70
2018-05-09T02:50:42.135Z,93859.19
2018-05-09T02:53:10.933Z,93860.80
2018-05-09T02:55:39.336Z,93871.59
2018-05-09T02:58:07.748Z,93859.19
2018-05-09T03:00:37.312Z,93859.64
2018-05-09T03:03:05.750Z,93856.89
2018-05-09T03:05:34.122Z,93858.31
2018-05-09T03:08:02.530Z,93851.30
2018-05-09T03:10:30.951Z,93856.26
2018-05-09T03:12:59.382Z,93859.30
2018-05-09T03:15:28.205Z,93862.70
2018-05-09T03:17:56.611Z,93868.67
2018-05-09T03:20:25.110Z,93850.14
2018-05-09T03:22:53.939Z,93881.07
2018-05-09T03:25:22.276Z,93835.40
2018-05-09T03:27:50.848Z,93853.81
2018-05-09T03:30:19.600Z,93843.23
2018-05-09T03:32:47.996Z,93871.56
2018-05-09T03:35:16.373Z,93840.26
2018-05-09T03:37:44.961Z,93884.07
2018-05-09T03:40:13.436Z,93890.36
2018-05-09T03:42:41.901Z,93886.85
2018-05-09T03:45:10.326Z,93884.69
2018-05-09T03:47:38.707Z,93885.98
2018-05-09T03:50:07.271Z,93892.97
2018-05-09T03:52:35.739Z,93888.44
2018-05-09T03:55:04.186Z,93892.24
2018-05-09T03:57:32.682Z,93869.32
2018-05-09T04:00:01.252Z,93874.13
2018-05-09T04:02:44.291Z,93893.45
2018-05-09T04:05:24.689Z,93898.22
2018-05-09T04:08:04.815Z,93923.61
2018-05-09T04:10:33.639Z,93905.27
2018-05-09T04:13:02.065Z,93903.78
2018-05-09T04:15:30.464Z,93902.22
2018-05-09T04:17:59.163Z,93881.37
2018-05-09T04:20:27.595Z,93899.55
2018-05-09T04:22:56.020Z,93913.61
2018-05-09T04:25:24.816Z,93904.63
2018-05-09T04:27:54.423Z,93901.54
2018-05-09T04:30:22.800Z,93903.13
2018-05-09T04:32:51.247Z,93903.71
2018-05-09T04:35:19.619Z,93906.25
2018-05-09T04:37:48.701Z,93903.63
2018-05-09T04:40:17.296Z,93915.94
2018-05-09T04:42:45.684Z,93912.77
2018-05-09T04:45:14.088Z,93910.44
2018-05-09T04:47:42.593Z,93904.67
2018-05-09T04:50:11.118Z,93912.17
2018-05-09T04:52:39.561Z,93912.23
2018-05-09T04:55:08.045Z,93903.78
2018-05-09T04:57:36.412Z,93911.16
2018-05-09T05:00:04.881Z,93905.04
2018-05-09T05:02:33.628Z,93906.70
2018-05-09T05:05:02.037Z,93913.41
2018-05-09T05:07:30.447Z,93913.33
2018-05-09T05:09:58.980Z,93908.66
2018-05-09T05:12:27.393Z,93902.30
2018-05-09T05:14:55.921Z,93908.57
2018-05-09T05:17:24.395Z,93904.18
2018-05-09T05:19:52.801Z,93904.30
2018-05-09T05:22:21.247Z,93902.84
2018-05-09T05:24:50.000Z,93896.63
2018-05-09T05:27:18.415Z,93901.53
2018-05-09T05:29:46.792Z,93901.36
2018-05-09T05:32:15.243Z,93905.21
2018-05-09T05:34:43.640Z,93898.49
2018-05-09T05:37:12.185Z,93899.31
2018-05-09T05:39:41.021Z,93806.86
2018-05-09T05:42:09.403Z,93897.41
2018-05-09T05:44:37.793Z,93902.64
2018-05-09T05:47:06.571Z,93898.35
2018-05-09T05:49:34.967Z,93883.25
2018-05-09T05:52:03.387Z,93906.84
2018-05-09T05:54:31.827Z,93900.69
2018-05-09T05:57:00.332Z,93900.08
2018-05-09T05:59:28.744Z,93904.91
2018-05-09T06:01:57.561Z,93899.38
2018-05-09T06:04:25.946Z,93906.11
2018-05-09T06:06:54.403Z,93902.02
2018-05-09T06:09:22.855Z,93904.22
2018-05-09T06:11:51.280Z,93908.54
2018-05-09T06:14:19.692Z,93906.90
2018-05-09T06:16:48.116Z,93906.44
2018-05-09T06:19:16.544Z,93910.03
2018-05-09T06:21:44.964Z,93891.72
2018-05-09T06:24:13.400Z,93905.78
2018-05-09T06:26:41.869Z,93908.20
2018-05-09T06:29:10.435Z,93906.38
2018-05-09T06:31:38.820Z,93904.53
2018-05-09T06:34:07.267Z,93900.81
2018-05-09T06:36:35.671Z,93900.27
2018-05-09T06:39:04.183Z,93902.13
2018-05-09T06:41:32.599Z,93905.11
2018-05-09T06:44:01.016Z,93892.92
2018-05-09T06:46:29.583Z,93906.50
2018-05-09T06:48:57.984Z,93898.30
2018-05-09T06:51:26.423Z,93907.53
2018-05-09T06:53:54.859Z,93902.72
2018-05-09T06:56:23.326Z,93903.91
2018-05-09T06:58:51.812Z,93900.80
2018-05-09T07:01:20.257Z,93898.11
2018-05-09T07:03:48.641Z,93902.40
2018-05-09T07:06:17.109Z,93901.09
2018-05-09T07:08:45.523Z,93899.43
2018-05-09T07:11:13.969Z,93897.70
2018-05-09T07:13:42.355Z,93902.20
2018-05-09T07:16:10.779Z,93898.02
2018-05-09T07:18:39.203Z,93904.46
2018-05-09T07:21:07.609Z,93921.63
2018-05-09T07:23:36.065Z,93901.58
2018-05-09T07:26:04.476Z,93912.33
2018-05-09T07:28:32.928Z,93897.64
2018-05-09T07:31:01.359Z,93895.81
2018-05-09T07:33:29.769Z,93903.92
2018-05-09T07:35:58.167Z,93898.69
2018-05-09T07:38:26.595Z,93904.31
2018-05-09T07:40:55.062Z,93898.34
2018-05-09T07:43:23.495Z,93873.16
2018-05-09T07:45:51.976Z,93893.80
2018-05-09T07:48:20.421Z,93892.65
2018-05-09T07:50:48.839Z,93887.84
2018-05-09T07:53:17.270Z,93889.89
2018-05-09T07:55:45.724Z,93878.31
2018-05-09T07:58:14.111Z,93880.47
2018-05-09T08:00:42.547Z,93883.33
2018-05-09T08:03:10.979Z,93879.02
2018-05-09T08:05:39.550Z,93882.34
2018-05-09T08:08:07.963Z,93874.56
2018-05-09T08:10:36.400Z,93801.38
2018-05-09T08:13:04.840Z,93879.26
2018-05-09T08:15:33.258Z,93874.77
2018-05-09T08:18:01.698Z,93882.48
2018-05-09T08:20:30.153Z,93875.27
2018-05-09T08:22:58.599Z,93869.00
2018-05-09T08:25:27.035Z,93879.11
2018-05-09T08:27:55.475Z,93866.11
2018-05-09T08:30:24.156Z,93865.27
2018-05-09T08:32:52.481Z,93865.78
2018-05-09T08:35:20.948Z,93872.69
2018-05-09T08:37:49.324Z,93864.41
2018-05-09T08:40:17.811Z,93867.14
2018-05-09T08:42:46.279Z,93864.30
2018-05-09T08:45:14.724Z,93861.64
2018-05-09T08:47:43.178Z,93856.39
2018-05-09T08:50:11.628Z,93861.37
2018-05-09T08:52:40.052Z,93859.94
2018-05-09T08:55:08.490Z,93854.69
2018-05-09T08:57:37.000Z,93853.50
2018-05-09T09:00:05.453Z,93859.22
2018-05-09T09:02:33.907Z,93849.12
2018-05-09T09:05:02.313Z,93831.05
2018-05-09T09:07:30.877Z,93850.41
2018-05-09T09:09:59.263Z,93853.08
2018-05-09T09:12:27.681Z,93854.70
2018-05-09T09:14:56.085Z,93835.20
2018-05-09T09:17:24.519Z,93846.01
2018-05-09T09:19:53.023Z,93852.98
2018-05-09T09:22:21.468Z,93852.86
2018-05-09T09:24:49.860Z,93845.17
2018-05-09T09:27:18.311Z,93835.63
2018-05-09T09:29:46.685Z,93835.84
2018-05-09T09:32:15.177Z,93831.65
2018-05-09T09:34:43.697Z,93835.01
2018-05-09T09:37:12.092Z,93828.53
2018-05-09T09:39:40.528Z,93827.44
2018-05-09T09:42:08.960Z,93826.56
2018-05-09T09:44:37.395Z,93828.81
2018-05-09T09:47:05.823Z,93805.17
2018-05-09T09:49:34.369Z,93819.44
2018-05-09T09:52:02.793Z,93822.90
2018-05-09T09:54:31.260Z,93817.39
2018-05-09T09:56:59.693Z,93818.89
2018-05-09T09:59:28.129Z,93814.94
2018-05-09T10:01:56.572Z,93809.30
2018-05-09T10:04:25.060Z,93814.09
2018-05-09T10:06:53.505Z,93815.99
2018-05-09T10:09:22.029Z,93816.48
2018-05-09T10:11:50.498Z,93804.27
2018-05-09T10:14:18.927Z,93802.95
2018-05-09T10:16:47.368Z,93810.00
2018-05-09T10:19:15.831Z,93788.70
2018-05-09T10:21:44.335Z,93803.21
2018-05-09T10:24:12.719Z,93800.09
2018-05-09T10:26:41.151Z,93798.81
2018-05-09T10:29:09.552Z,93797.52
2018-05-09T10:31:38.093Z,93794.67
2018-05-09T10:34:06.461Z,93788.41
2018-05-09T10:36:34.879Z,93790.82
2018-05-09T10:39:03.316Z,93771.56
2018-05-09T10:41:31.810Z,93785.32
2018-05-09T10:44:00.227Z,93781.98
2018-05-09T10:46:28.672Z,93783.77
2018-05-09T10:48:57.051Z,93781.70
2018-05-09T10:51:25.515Z,93775.23
2018-05-09T10:53:53.930Z,93776.78
2018-05-09T10:56:22.472Z,93782.26
2018-05-09T10:58:50.890Z,93778.91
2018-05-09T11:01:19.315Z,93774.28
2018-05-09T11:03:47.838Z,93771.73
2018-05-09T11:06:16.242Z,93770.55
2018-05-09T11:08:44.659Z,93769.44
2018-05-09T11:11:13.051Z,93770.02
2018-05-09T11:13:41.579Z,93768.67
2018-05-09T11:16:09.987Z,93759.06
2018-05-09T11:18:38.406Z,93754.15
2018-05-09T11:21:06.905Z,93750.20
2018-05-09T11:23:35.319Z,93752.41
2018-05-09T11:26:03.803Z,93752.77
2018-05-09T11:28:32.250Z,93754.53
2018-05-09T11:31:00.830Z,93746.36
2018-05-09T11:33:29.262Z,93744.17
2018-05-09T11:35:57.699Z,93739.05
2018-05-09T11:38:26.128Z,93739.28
2018-05-09T11:40:54.544Z,93743.16
2018-05-09T11:43:22.993Z,93724.86
2018-05-09T11:45:51.408Z,93726.55
2018-05-09T11:48:19.899Z,93729.68
2018-05-09T11:50:48.292Z,93724.33
2018-05-09T11:53:16.875Z,93737.94
2018-05-09T11:55:45.163Z,93725.39
2018-05-09T11:58:13.969Z,93716.11
2018-05-09T12:00:42.357Z,93707.68
2018-05-09T12:03:10.841Z,93713.86
2018-05-09T12:05:39.468Z,93690.48
2018-05-09T12:08:07.964Z,93703.75
2018-05-09T12:10:36.632Z,93703.86
2018-05-09T12:13:05.038Z,93703.80
2018-05-09T12:15:33.519Z,93692.49
2018-05-09T12:18:01.905Z,93682.40
2018-05-09T12:20:30.297Z,93685.66
2018-05-09T12:22:58.712Z,93677.49
2018-05-09T12:25:27.131Z,93683.75
2018-05-09T12:27:55.563Z,93688.59
2018-05-09T12:30:24.135Z,93687.20
2018-05-09T12:32:52.571Z,93656.95
2018-05-09T12:35:20.968Z,93685.57
2018-05-09T12:37:49.379Z,93678.00
2018-05-09T12:40:17.831Z,93673.02
2018-05-09T12:42:46.220Z,93670.75
2018-05-09T12:45:14.596Z,93672.94
2018-05-09T12:47:43.045Z,93670.87
2018-05-09T12:50:11.439Z,93674.63
2018-05-09T12:52:39.832Z,93662.45
2018-05-09T12:55:08.247Z,93664.70
2018-05-09T12:57:36.650Z,93635.88
2018-05-09T13:00:05.104Z,93657.63
2018-05-09T13:02:33.511Z,93657.80
2018-05-09T13:05:01.894Z,93654.66
2018-05-09T13:07:30.375Z,93653.10
2018-05-09T13:09:58.788Z,93647.83
2018-05-09T13:12:27.186Z,93648.27
2018-05-09T13:14:55.619Z,93649.93
2018-05-09T13:17:23.991Z,93646.67
2018-05-09T13:19:52.455Z,93645.41
2018-05-09T13:22:20.855Z,93647.45
2018-05-09T13:24:49.278Z,93647.65
2018-05-09T13:27:17.655Z,93642.63
2018-05-09T13:29:46.120Z,93643.64
2018-05-09T13:32:14.508Z,93638.97
2018-05-09T13:34:42.908Z,93638.75
2018-05-09T13:37:11.379Z,93634.36
2018-05-09T13:39:39.907Z,93630.78
2018-05-09T13:42:10.556Z,93633.34
2018-05-09T13:44:39.870Z,93620.00
2018-05-09T13:47:09.587Z,93637.22
2018-05-09T13:49:38.020Z,93629.27
2018-05-09T13:52:06.472Z,93624.27
2018-05-09T13:54:35.078Z,93626.26
2018-05-09T13:57:03.466Z,93617.70
2018-05-09T13:59:31.844Z,93618.98
2018-05-09T14:02:00.367Z,93616.90
2018-05-09T14:04:28.763Z,93617.99
2018-05-09T14:06:57.153Z,93621.87
2018-05-09T14:09:25.565Z,93609.10
2018-05-09T14:11:53.972Z,93610.16
2018-05-09T14:14:22.376Z,93612.78
2018-05-09T14:16:51.210Z,93615.95
2018-05-09T14:19:19.588Z,93615.52
2018-05-09T14:21:47.993Z,93617.95
2018-05-09T14:24:16.648Z,93618.45
2018-05-09T14:26:45.016Z,93613.81
2018-05-09T14:29:13.448Z,93620.63
2018-05-09T14:31:41.919Z,93598.05
2018-05-09T14:34:10.453Z,93617.54
2018-05-09T14:36:38.850Z,93609.52
2018-05-09T14:39:07.291Z,93611.25
2018-05-09T14:41:35.692Z,93608.58
2018-05-09T14:44:04.100Z,93605.98
2018-05-09T14:46:32.733Z,93595.64
2018-05-09T14:49:01.219Z,93614.73
2018-05-09T14:51:29.652Z,93609.58
2018-05-09T14:53:58.191Z,93610.95
2018-05-09T14:56:26.573Z,93598.38
2018-05-09T14:58:54.990Z,93607.73
2018-05-09T15:01:23.415Z,93612.42
2018-05-09T15:03:51.783Z,93617.64
2018-05-09T15:06:20.352Z,93612.88
2018-05-09T15:08:49.015Z,93606.71
2018-05-09T15:11:17.409Z,93618.37
2018-05-09T15:13:45.833Z,93614.28
2018-05-09T15:16:14.328Z,93608.92
2018-05-09T15:18:43.168Z,93610.52
2018-05-09T15:21:11.551Z,93602.20
2018-05-09T15:23:40.308Z,93616.63
2018-05-09T15:26:08.768Z,93615.43
2018-05-09T15:28:37.189Z,93615.89
2018-05-09T15:31:05.976Z,93622.66
2018-05-09T15:33:34.359Z,93611.87
2018-05-09T15:36:02.880Z,93614.09
2018-05-09T15:38:31.509Z,93606.48
2018-05-09T15:40:59.980Z,93611.09
2018-05-09T15:43:28.392Z,93613.29
2018-05-09T15:45:56.792Z,93614.39
2018-05-09T15:48:25.207Z,93599.26
2018-05-09T15:50:53.701Z,93613.55
2018-05-09T15:53:22.127Z,93622.44
2018-05-09T15:55:50.747Z,93616.73
2018-05-09T15:58:19.301Z,93618.69
2018-05-09T16:00:48.741Z,93624.05
2018-05-09T16:03:17.124Z,93627.87
2018-05-09T16:05:45.621Z,93630.41
2018-05-09T16:08:14.107Z,93629.50
2018-05-09T16:10:42.556Z,93633.91
2018-05-09T16:13:10.939Z,93646.04
2018-05-09T16:15:39.461Z,93649.03
2018-05-09T16:18:07.928Z,93654.88
2018-05-09T16:20:36.383Z,93656.41
2018-05-09T16:23:04.841Z,93655.11
2018-05-09T16:25:33.310Z,93667.39
2018-05-09T16:28:01.760Z,93658.59
2018-05-09T16:30:30.212Z,93665.73
2018-05-09T16:32:58.650Z,93661.67
2018-05-09T16:35:27.077Z,93651.65
2018-05-09T16:37:55.566Z,93665.49
2018-05-09T16:40:23.977Z,93672.84
2018-05-09T16:42:52.436Z,93673.67
2018-05-09T16:45:21.243Z,93673.39
2018-05-09T16:47:49.631Z,93672.97
2018-05-09T16:50:18.047Z,93678.19
2018-05-09T16:52:46.515Z,93687.16
2018-05-09T16:55:14.920Z,93697.00
2018-05-09T16:57:43.300Z,93698.30
2018-05-09T17:00:11.865Z,93698.93
2018-05-09T17:02:40.252Z,93706.36
2018-05-09T17:05:08.712Z,93711.95
2018-05-09T17:07:37.240Z,93712.13
2018-05-09T17:10:05.719Z,93680.41
2018-05-09T17:12:34.134Z,93697.84
2018-05-09T17:15:02.844Z,93727.06
2018-05-09T17:17:31.404Z,93728.87
2018-05-09T17:19:59.874Z,93739.42
2018-05-09T17:22:34.155Z,93732.50
2018-05-09T17:25:02.555Z,93752.36
2018-05-09T17:27:30.939Z,93752.47
2018-05-09T17:29:59.643Z,93742.34
2018-05-09T17:32:28.023Z,93749.98
2018-05-09T17:34:56.492Z,93746.42
2018-05-09T17:37:24.952Z,93753.95
2018-05-09T17:39:53.340Z,93751.59
2018-05-09T17:42:21.755Z,93749.39
2018-05-09T17:44:50.238Z,93766.91
2018-05-09T17:47:18.646Z,93764.54
2018-05-09T17:49:47.067Z,93764.13
2018-05-09T17:52:15.686Z,93757.88
2018-05-09T17:54:44.075Z,93765.36
2018-05-09T17:57:12.465Z,93769.67
2018-05-09T17:59:40.892Z,93771.12
2018-05-09T18:02:09.315Z,93756.91
2018-05-09T18:04:37.707Z,93773.36
2018-05-09T18:07:06.149Z,93771.63
2018-05-09T18:09:34.601Z,93779.69
2018-05-09T18:12:03.016Z,93781.87
2018-05-09T18:14:31.515Z,93758.10
2018-05-09T18:16:59.909Z,93781.75
2018-05-09T18:19:28.333Z,93779.34
2018-05-09T18:21:56.920Z,93769.02
2018-05-09T18:24:25.376Z,93787.59
2018-05-09T18:26:53.885Z,93783.63
2018-05-09T18:29:22.399Z,93793.03
2018-05-09T18:31:50.837Z,93796.94
2018-05-09T18:34:19.235Z,93798.02
2018-05-09T18:36:47.835Z,93800.36
2018-05-09T18:39:16.227Z,93804.59
2018-05-09T18:41:44.600Z,93800.02
2018-05-09T18:44:13.071Z,93806.45
2018-05-09T18:46:41.494Z,93806.43
2018-05-09T18:49:09.924Z,93811.50
2018-05-09T18:51:38.379Z,93809.28
2018-05-09T18:54:06.978Z,93805.89
2018-05-09T18:56:35.287Z,93810.31
2018-05-09T18:59:03.760Z,93809.70
2018-05-09T19:01:32.196Z,93805.66
2018-05-09T19:04:00.566Z,93802.77
2018-05-09T19:06:29.069Z,93804.55
2018-05-09T19:08:57.425Z,93811.78
2018-05-09T19:11:26.084Z,93815.35
2018-05-09T19:13:54.674Z,93819.41
2018-05-09T19:16:23.081Z,93814.64
2018-05-09T19:18:51.497Z,93806.05
2018-05-09T19:21:19.932Z,93805.23
2018-05-09T19:23:48.321Z,93788.95
2018-05-09T19:26:16.767Z,93811.73
2018-05-09T19:28:45.226Z,93816.62
2018-05-09T19:31:13.702Z,93824.55
2018-05-09T19:33:42.103Z,93826.87
2018-05-09T19:36:10.560Z,93823.26
2018-05-09T19:38:39.014Z,93824.89
2018-05-09T19:41:07.917Z,93825.54
2018-05-09T19:43:36.364Z,93806.39
2018-05-09T19:46:04.779Z,93834.75
2018-05-09T19:48:33.180Z,93830.56
2018-05-09T19:51:01.607Z,93830.53
2018-05-09T19:53:30.044Z,93833.33
2018-05-09T19:55:58.433Z,93837.18
2018-05-09T19:58:26.887Z,93830.92
2018-05-09T20:00:55.288Z,93835.06
2018-05-09T20:03:23.686Z,93841.17
2018-05-09T20:05:52.219Z,93841.06
2018-05-09T20:08:20.635Z,93846.31
2018-05-09T20:10:49.016Z,93847.84
2018-05-09T20:13:17.636Z,93844.88
2018-05-09T20:15:46.046Z,93830.62
2018-05-09T20:18:14.432Z,93828.83
2018-05-09T20:20:43.193Z,93849.11
2018-05-09T20:23:11.592Z,93844.41
2018-05-09T20:25:40.010Z,93848.78
2018-05-09T20:28:08.436Z,93848.45
2018-05-09T20:30:42.551Z,93853.33
2018-05-09T20:33:11.203Z,93851.89
2018-05-09T20:35:39.719Z,93846.98
2018-05-09T20:38:08.125Z,93847.68
2018-05-09T20:40:36.734Z,93847.69
2018-05-09T20:43:05.138Z,93841.19
2018-05-09T20:45:33.558Z,93817.87
2018-05-09T20:48:02.228Z,93842.92
2018-05-09T20:50:30.676Z,93838.59
2018-05-09T20:52:59.120Z,93836.17
2018-05-09T20:55:29.244Z,93836.24
2018-05-09T20:57:57.622Z,93833.11
2018-05-09T21:00:26.137Z,93831.40
2018-05-09T21:02:54.734Z,93837.43
2018-05-09T21:05:23.135Z,93849.80
2018-05-09T21:07:56.477Z,93849.75
2018-05-09T21:10:24.875Z,93853.64
2018-05-09T21:12:53.320Z,93850.48
2018-05-09T21:15:21.796Z,93860.62
2018-05-09T21:17:50.228Z,93855.84
2018-05-09T21:20:18.614Z,93862.62
2018-05-09T21:22:47.322Z,93876.33
2018-05-09T21:25:15.740Z,93864.07
2018-05-09T21:27:44.159Z,93871.74
2018-05-09T21:30:12.646Z,93864.39
2018-05-09T21:32:41.199Z,93851.30
2018-05-09T21:35:09.663Z,93867.36
2018-05-09T21:37:38.290Z,93874.62
2018-05-09T21:40:06.758Z,93875.30
2018-05-09T21:42:35.144Z,93863.06
2018-05-09T21:45:03.631Z,93870.18
2018-05-09T21:47:32.019Z,93867.69
2018-05-09T21:50:00.451Z,93872.91
2018-05-09T21:52:28.892Z,93848.34
2018-05-09T21:54:57.273Z,93862.19
2018-05-09T21:57:25.666Z,93868.53
2018-05-09T21:59:54.079Z,93864.61
2018-05-09T22:02:22.487Z,93858.98
2018-05-09T22:04:50.979Z,93857.33
2018-05-09T22:07:19.461Z,93858.52
2018-05-09T22:09:47.903Z,93855.48
2018-05-09T22:12:16.317Z,93857.58
2018-05-09T22:14:44.921Z,93858.83
2018-05-09T22:17:13.375Z,93853.16
2018-05-09T22:19:41.792Z,93857.70
2018-05-09T22:22:10.435Z,93849.96
2018-05-09T22:24:38.819Z,93853.95
2018-05-09T22:27:07.199Z,93839.13
2018-05-09T22:29:35.816Z,93856.06
2018-05-09T22:32:04.234Z,93835.27
2018-05-09T22:34:32.624Z,93849.48
2018-05-09T22:37:01.098Z,93852.18
2018-05-09T22:39:29.507Z,93848.59
2018-05-09T22:41:57.891Z,93852.73
2018-05-09T22:44:26.512Z,93854.86
2018-05-09T22:46:54.941Z,93853.43
2018-05-09T22:49:23.326Z,93860.81
2018-05-09T22:51:51.752Z,93859.14
2018-05-09T22:54:20.140Z,93846.98
2018-05-09T22:56:48.627Z,93862.41
2018-05-09T22:59:17.061Z,93871.59
2018-05-09T23:01:45.470Z,93867.80
2018-05-09T23:04:13.864Z,93871.01
2018-05-09T23:06:42.535Z,93868.84
2018-05-09T23:09:10.937Z,93874.86
2018-05-09T23:11:39.305Z,93876.23
2018-05-09T23:14:07.810Z,93880.56
2018-05-09T23:16:36.214Z,93880.48
2018-05-09T23:19:04.621Z,93885.26
2018-05-09T23:21:33.087Z,93883.73
2018-05-09T23:24:01.494Z,93894.27
2018-05-09T23:26:29.893Z,93894.62
2018-05-09T23:28:58.325Z,93891.80
2018-05-09T23:31:26.726Z,93896.20
2018-05-09T23:33:55.180Z,93895.05
2018-05-09T23:36:23.664Z,93896.05
2018-05-09T23:38:52.069Z,93893.53
2018-05-09T23:41:20.484Z,93896.34
2018-05-09T23:43:49.144Z,93894.41
2018-05-09T23:46:17.581Z,93886.81
2018-05-09T23:48:45.983Z,93889.51
2018-05-09T23:51:14.703Z,93882.17
2018-05-09T23:53:43.094Z,93881.05
2018-05-09T23:56:11.491Z,93887.53
2018-05-09T23:58:39.951Z,93886.89
